createdAt,value
2022-10-24T00:00:47.523Z,13.23
2022-10-24T00:05:42.781Z,10.40
2022-10-24T00:10:36.477Z,7.67
2022-10-24T00:15:29.026Z,7.73
2022-10-24T00:20:23.012Z,9.73
2022-10-24T00:25:15.496Z,14.43
2022-10-24T00:30:08.676Z,13.23
2022-10-24T00:35:01.363Z,10.53
2022-10-24T00:39:55.229Z,11.50
2022-10-24T00:44:48.271Z,14.00
2022-10-24T00:49:44.376Z,13.37
2022-10-24T00:54:38.108Z,10.90
2022-10-24T00:59:31.998Z,9.67
2022-10-24T01:04:24.546Z,8.60
2022-10-24T01:09:22.991Z,12.37
2022-10-24T01:14:20.151Z,12.20
2022-10-24T01:19:18.931Z,15.67
2022-10-24T01:24:27.830Z,14.13
2022-10-24T01:29:23.153Z,11.50
2022-10-24T01:34:21.698Z,11.77
2022-10-24T01:39:16.265Z,12.77
2022-10-24T01:44:13.484Z,13.87
2022-10-24T01:49:07.799Z,15.83
2022-10-24T01:54:04.157Z,15.70
2022-10-24T01:59:04.915Z,13.37
2022-10-24T02:03:58.830Z,12.17
2022-10-24T02:08:53.474Z,12.90
2022-10-24T02:13:50.743Z,13.07
2022-10-24T02:18:43.388Z,9.93
2022-10-24T02:23:39.337Z,16.10
2022-10-24T02:28:34.408Z,11.97
2022-10-24T02:33:29.450Z,26.33
2022-10-24T02:38:24.850Z,16.33
2022-10-24T02:43:18.121Z,25.20
2022-10-24T02:48:12.264Z,14.67
2022-10-24T02:53:06.410Z,18.00
2022-10-24T02:57:58.935Z,17.37
2022-10-24T03:02:51.467Z,12.70
2022-10-24T03:07:43.983Z,18.00
2022-10-24T03:12:37.885Z,15.60
2022-10-24T03:17:30.373Z,16.80
2022-10-24T03:22:23.639Z,22.33
2022-10-24T03:27:17.922Z,15.90
2022-10-24T03:32:11.876Z,15.20
2022-10-24T03:37:04.522Z,15.43
2022-10-24T03:41:57.073Z,15.77
2022-10-24T03:46:49.560Z,13.27
2022-10-24T03:51:43.404Z,18.43
2022-10-24T03:56:35.936Z,15.70
2022-10-24T04:01:28.657Z,23.10
2022-10-24T04:06:21.320Z,13.47
2022-10-24T04:11:15.190Z,15.43
2022-10-24T04:16:08.032Z,17.73
2022-10-24T04:21:00.550Z,18.27
2022-10-24T04:25:53.073Z,11.40
2022-10-24T04:30:46.964Z,19.33
2022-10-24T04:35:39.496Z,12.27
2022-10-24T04:40:31.973Z,13.70
2022-10-24T04:45:24.472Z,13.83
2022-10-24T04:50:18.510Z,11.47
2022-10-24T04:55:11.041Z,10.10
2022-10-24T05:00:03.594Z,8.93
2022-10-24T05:04:56.047Z,10.20
2022-10-24T05:09:49.818Z,11.47
2022-10-24T05:14:42.301Z,9.33
2022-10-24T05:19:34.704Z,11.00
2022-10-24T05:24:27.121Z,12.37
2022-10-24T05:29:20.898Z,5.90
2022-10-24T05:34:13.345Z,15.90
2022-10-24T05:39:05.779Z,14.70
2022-10-24T05:43:58.245Z,9.10
2022-10-24T05:48:51.999Z,11.47
2022-10-24T05:53:44.501Z,13.20
2022-10-24T05:58:37.074Z,13.60
2022-10-24T06:03:29.769Z,11.03
2022-10-24T06:08:23.585Z,14.80
2022-10-24T06:13:16.057Z,20.43
2022-10-24T06:18:08.736Z,9.80
2022-10-24T06:23:01.217Z,19.90
2022-10-24T06:27:55.141Z,9.70
2022-10-24T06:32:48.027Z,17.97
2022-10-24T06:37:42.918Z,13.47
2022-10-24T06:42:38.264Z,16.70
2022-10-24T06:47:32.201Z,11.20
2022-10-24T06:52:24.771Z,17.97
2022-10-24T06:57:18.031Z,14.57
2022-10-24T07:02:10.786Z,12.40
2022-10-24T07:07:04.787Z,15.93
2022-10-24T07:11:57.367Z,14.07
2022-10-24T07:16:49.831Z,8.83
2022-10-24T07:21:42.685Z,8.27
2022-10-24T07:26:36.572Z,11.37
2022-10-24T07:31:30.377Z,8.80
2022-10-24T07:36:23.821Z,9.27
2022-10-24T07:41:16.311Z,13.50
2022-10-24T07:46:10.943Z,10.43
2022-10-24T07:51:06.171Z,8.37
2022-10-24T07:55:59.832Z,9.20
2022-10-24T08:00:52.382Z,12.53
2022-10-24T08:05:46.276Z,9.43
2022-10-24T08:10:39.246Z,9.50
2022-10-24T08:15:31.791Z,9.00
2022-10-24T08:20:26.203Z,6.77
2022-10-24T08:25:20.436Z,11.20
2022-10-24T08:30:13.416Z,8.20
2022-10-24T08:35:06.558Z,13.50
2022-10-24T08:39:59.084Z,11.60
2022-10-24T08:44:53.181Z,10.23
2022-10-24T08:49:50.484Z,12.73
2022-10-24T08:54:44.849Z,10.77
2022-10-24T08:59:37.620Z,7.60
2022-10-24T09:04:35.344Z,13.77
2022-10-24T09:09:31.438Z,7.27
2022-10-24T09:14:24.697Z,14.80
2022-10-24T09:19:18.452Z,12.13
2022-10-24T09:24:17.636Z,7.90
2022-10-24T09:29:10.290Z,9.30
2022-10-24T09:34:04.146Z,12.80
2022-10-24T09:38:56.690Z,12.27
2022-10-24T09:43:53.264Z,9.40
2022-10-24T09:48:47.687Z,10.33
2022-10-24T09:53:41.033Z,9.30
2022-10-24T09:58:33.814Z,9.10
2022-10-24T10:03:28.366Z,11.60
2022-10-24T10:08:21.721Z,13.80
2022-10-24T10:13:23.507Z,10.37
2022-10-24T10:18:23.814Z,11.03
2022-10-24T10:23:18.971Z,11.53
2022-10-24T10:28:20.594Z,11.63
2022-10-24T10:33:18.479Z,9.63
2022-10-24T10:38:18.784Z,7.40
2022-10-24T10:43:20.088Z,7.90
2022-10-24T10:48:21.904Z,7.03
2022-10-24T10:53:22.306Z,9.50
2022-10-24T10:58:24.137Z,10.20
2022-10-24T11:03:21.117Z,9.27
2022-10-24T11:08:19.551Z,12.97
2022-10-24T11:13:16.270Z,9.17
2022-10-24T11:18:12.640Z,8.23
2022-10-24T11:23:08.293Z,5.97
2022-10-24T11:28:03.752Z,10.90
2022-10-24T11:32:59.495Z,10.13
2022-10-24T11:37:55.302Z,6.90
2022-10-24T11:42:50.731Z,8.70
2022-10-24T11:48:00.791Z,7.43
2022-10-24T11:52:56.610Z,12.00
2022-10-24T11:57:51.534Z,8.47
2022-10-24T12:02:52.291Z,8.47
2022-10-24T12:08:03.351Z,6.20
2022-10-24T12:13:06.549Z,6.53
2022-10-24T12:18:02.927Z,7.33
2022-10-24T12:22:55.777Z,7.53
2022-10-24T12:27:54.784Z,5.07
2022-10-24T12:32:48.806Z,7.97
2022-10-24T12:37:45.904Z,6.43
2022-10-24T12:42:58.051Z,6.00
2022-10-24T12:48:05.455Z,6.23
2022-10-24T12:53:07.140Z,5.63
2022-10-24T12:57:59.774Z,6.30
2022-10-24T13:03:01.437Z,8.30
2022-10-24T13:08:00.449Z,9.90
2022-10-24T13:13:01.745Z,4.70
2022-10-24T13:18:00.100Z,6.53
2022-10-24T13:23:01.215Z,5.77
2022-10-24T13:28:08.656Z,4.60
2022-10-24T13:33:20.134Z,6.70
2022-10-24T13:38:15.330Z,6.10
2022-10-24T13:43:15.193Z,4.50
2022-10-24T13:48:13.098Z,6.00
2022-10-24T13:53:14.249Z,5.73
2022-10-24T13:58:11.808Z,5.50
2022-10-24T14:03:04.963Z,4.57
2022-10-24T14:07:58.058Z,4.90
2022-10-24T14:12:56.921Z,5.83
2022-10-24T14:17:58.916Z,5.93
2022-10-24T14:22:51.493Z,6.50
2022-10-24T14:27:44.291Z,6.43
2022-10-24T14:32:37.039Z,9.97
2022-10-24T14:37:32.775Z,7.80
2022-10-24T14:42:25.645Z,5.53
2022-10-24T14:47:26.318Z,5.40
2022-10-24T14:52:27.235Z,5.90
2022-10-24T14:57:22.829Z,6.07
2022-10-24T15:02:19.582Z,7.57
2022-10-24T15:07:20.823Z,8.10
2022-10-24T15:12:13.772Z,5.73
2022-10-24T15:17:25.766Z,7.03
2022-10-24T15:22:24.830Z,5.53
2022-10-24T15:27:25.321Z,6.97
2022-10-24T15:32:19.242Z,8.30
2022-10-24T15:37:18.148Z,10.83
2022-10-24T15:42:11.923Z,9.27
2022-10-24T15:47:04.478Z,10.50
2022-10-24T15:51:59.501Z,8.27
2022-10-24T15:56:52.014Z,12.30
2022-10-24T16:01:47.483Z,11.53
2022-10-24T16:06:40.256Z,9.43
2022-10-24T16:11:34.358Z,6.93
2022-10-24T16:16:26.905Z,13.70
2022-10-24T16:21:20.445Z,11.73
2022-10-24T16:26:13.018Z,7.00
2022-10-24T16:31:07.669Z,15.00
2022-10-24T16:36:00.336Z,10.60
2022-10-24T16:40:54.033Z,12.90
2022-10-24T16:45:48.916Z,19.20
2022-10-24T16:50:46.388Z,10.27
2022-10-24T16:55:39.257Z,16.40
2022-10-24T17:00:31.861Z,9.83
2022-10-24T17:05:25.879Z,6.93
2022-10-24T17:10:22.266Z,5.50
2022-10-24T17:15:21.052Z,2.77
2022-10-24T17:20:14.915Z,2.30
2022-10-24T17:25:08.575Z,3.00
2022-10-24T17:30:02.594Z,3.80
2022-10-24T17:34:55.376Z,3.50
2022-10-24T17:39:50.057Z,5.57
2022-10-24T17:44:43.998Z,2.77
2022-10-24T17:49:37.875Z,1.53
2022-10-24T17:54:30.364Z,2.47
2022-10-24T17:59:22.969Z,5.67
2022-10-24T18:04:15.488Z,13.00
2022-10-24T18:09:09.389Z,2.93
2022-10-24T18:14:01.893Z,4.03
2022-10-24T18:18:56.325Z,7.57
2022-10-24T18:23:49.172Z,2.90
2022-10-24T18:28:44.036Z,3.47
2022-10-24T18:33:36.604Z,3.37
2022-10-24T18:38:29.099Z,5.00
2022-10-24T18:43:21.718Z,3.20
2022-10-24T18:48:16.293Z,3.20
2022-10-24T18:53:10.657Z,3.33
2022-10-24T18:58:03.779Z,5.13
2022-10-24T19:02:59.349Z,5.90
2022-10-24T19:07:53.404Z,9.50
2022-10-24T19:12:46.382Z,7.47
2022-10-24T19:17:39.292Z,5.00
2022-10-24T19:22:31.782Z,5.90
2022-10-24T19:27:25.746Z,2.70
2022-10-24T19:32:18.247Z,3.87
2022-10-24T19:37:11.582Z,2.57
2022-10-24T19:42:04.109Z,2.10
2022-10-24T19:46:57.879Z,2.80
2022-10-24T19:51:51.317Z,4.50
2022-10-24T19:56:43.736Z,3.93
2022-10-24T20:01:37.384Z,4.47
2022-10-24T20:06:31.586Z,2.13
2022-10-24T20:11:24.081Z,4.23
2022-10-24T20:16:16.606Z,3.00
2022-10-24T20:21:10.188Z,2.60
2022-10-24T20:26:05.333Z,2.90
2022-10-24T20:30:57.908Z,3.30
2022-10-24T20:35:50.361Z,5.07
2022-10-24T20:40:42.784Z,2.43
2022-10-24T20:45:39.640Z,2.30
2022-10-24T20:50:32.296Z,7.07
2022-10-24T20:55:39.175Z,2.07
2022-10-24T21:00:32.477Z,2.50
2022-10-24T21:05:27.287Z,2.00
2022-10-24T21:10:19.793Z,4.27
2022-10-24T21:15:12.699Z,2.87
2022-10-24T21:20:05.451Z,3.97
2022-10-24T21:24:59.274Z,2.50
2022-10-24T21:29:51.717Z,2.67
2022-10-24T21:34:44.239Z,6.30
2022-10-24T21:39:36.670Z,1.63
2022-10-24T21:44:30.433Z,2.50
2022-10-24T21:49:22.898Z,3.00
2022-10-24T21:54:17.124Z,2.90
2022-10-24T21:59:12.367Z,7.03
2022-10-24T22:04:06.914Z,2.80
2022-10-24T22:08:59.444Z,2.27
2022-10-24T22:13:52.421Z,2.03
2022-10-24T22:18:45.182Z,2.60
2022-10-24T22:23:39.066Z,4.13
2022-10-24T22:28:31.791Z,5.37
2022-10-24T22:33:28.799Z,5.47
2022-10-24T22:38:21.502Z,2.80
2022-10-24T22:43:15.975Z,1.57
2022-10-24T22:48:12.134Z,6.13
2022-10-24T22:53:04.931Z,4.93
2022-10-24T22:57:57.716Z,3.83
2022-10-24T23:02:52.634Z,2.93
2022-10-24T23:07:48.773Z,8.50
2022-10-24T23:12:41.827Z,2.20
2022-10-24T23:17:34.768Z,3.13
2022-10-24T23:22:30.035Z,4.20
2022-10-24T23:27:32.616Z,8.53
2022-10-24T23:32:26.375Z,9.00
2022-10-24T23:37:22.502Z,6.83
2022-10-24T23:42:16.775Z,7.97
2022-10-24T23:47:15.700Z,4.43
2022-10-24T23:52:12.988Z,4.43
2022-10-24T23:57:09.520Z,9.20
